createdAt,value
2022-12-15T00:00:29.566Z,11.80
2022-12-15T00:01:02.096Z,12.30
2022-12-15T00:01:34.674Z,11.80
2022-12-15T00:02:07.244Z,11.80
2022-12-15T00:02:39.820Z,12.00
2022-12-15T00:03:12.391Z,11.90
2022-12-15T00:03:44.876Z,12.40
2022-12-15T00:04:17.206Z,12.90
2022-12-15T00:04:49.689Z,14.10
2022-12-15T00:05:22.173Z,12.50
2022-12-15T00:05:54.685Z,12.50
2022-12-15T00:06:27.238Z,11.80
2022-12-15T00:06:59.654Z,11.90
2022-12-15T00:07:32.065Z,14.50
2022-12-15T00:08:04.544Z,13.80
2022-12-15T00:08:36.994Z,11.90
2022-12-15T00:09:14.000Z,11.10
2022-12-15T00:09:42.021Z,11.90
2022-12-15T00:10:14.561Z,11.70
2022-12-15T00:10:47.122Z,11.80
2022-12-15T00:11:19.616Z,12.40
2022-12-15T00:11:52.109Z,13.10
2022-12-15T00:12:24.604Z,12.30
2022-12-15T00:12:57.108Z,11.90
2022-12-15T00:13:29.989Z,11.80
2022-12-15T00:14:02.072Z,12.70
2022-12-15T00:14:34.645Z,12.80
2022-12-15T00:15:07.162Z,13.10
2022-12-15T00:15:39.716Z,12.60
2022-12-15T00:16:12.381Z,12.50
2022-12-15T00:16:44.786Z,13.00
2022-12-15T00:17:17.253Z,12.70
2022-12-15T00:17:49.771Z,12.50
2022-12-15T00:18:22.286Z,11.70
2022-12-15T00:18:54.789Z,11.00
2022-12-15T00:19:27.206Z,11.30
2022-12-15T00:19:59.797Z,13.80
2022-12-15T00:20:32.286Z,13.50
2022-12-15T00:21:04.743Z,11.90
2022-12-15T00:21:37.176Z,13.10
2022-12-15T00:22:09.622Z,13.00
2022-12-15T00:22:42.094Z,12.80
2022-12-15T00:23:14.558Z,12.10
2022-12-15T00:23:47.141Z,11.00
2022-12-15T00:24:19.653Z,11.10
2022-12-15T00:24:52.170Z,12.50
2022-12-15T00:25:24.686Z,14.10
2022-12-15T00:25:57.173Z,14.40
2022-12-15T00:26:29.724Z,13.70
2022-12-15T00:27:02.203Z,12.70
2022-12-15T00:27:34.734Z,11.70
2022-12-15T00:28:07.207Z,11.80
2022-12-15T00:28:39.678Z,13.00
2022-12-15T00:29:12.278Z,11.50
2022-12-15T00:29:44.895Z,9.60
2022-12-15T00:30:17.354Z,11.00
2022-12-15T00:30:50.297Z,12.20
2022-12-15T00:31:22.338Z,12.20
2022-12-15T00:31:54.777Z,10.80
2022-12-15T00:32:27.236Z,11.00
2022-12-15T00:32:59.677Z,10.90
2022-12-15T00:33:32.547Z,11.30
2022-12-15T00:34:04.687Z,12.10
2022-12-15T00:34:37.219Z,11.20
2022-12-15T00:35:09.663Z,10.80
2022-12-15T00:35:42.187Z,10.90
2022-12-15T00:36:14.633Z,11.20
2022-12-15T00:36:49.845Z,13.20
2022-12-15T00:37:19.678Z,12.90
2022-12-15T00:37:52.138Z,11.30
2022-12-15T00:38:24.629Z,11.40
2022-12-15T00:39:01.881Z,13.10
2022-12-15T00:39:29.718Z,13.10
2022-12-15T00:40:02.280Z,12.10
2022-12-15T00:40:34.805Z,11.50
2022-12-15T00:41:07.267Z,11.50
2022-12-15T00:41:39.712Z,11.50
2022-12-15T00:42:12.259Z,11.60
2022-12-15T00:42:44.839Z,12.40
2022-12-15T00:43:17.289Z,12.40
2022-12-15T00:43:49.868Z,11.50
2022-12-15T00:44:22.363Z,11.60
2022-12-15T00:44:54.903Z,12.00
2022-12-15T00:45:27.442Z,11.80
2022-12-15T00:45:59.907Z,12.10
2022-12-15T00:46:32.406Z,11.10
2022-12-15T00:47:04.923Z,12.00
2022-12-15T00:47:37.313Z,12.20
2022-12-15T00:48:09.830Z,11.50
2022-12-15T00:48:42.338Z,12.90
2022-12-15T00:49:14.860Z,12.60
2022-12-15T00:49:47.371Z,11.50
2022-12-15T00:50:19.919Z,11.10
2022-12-15T00:50:52.381Z,11.70
2022-12-15T00:51:24.845Z,12.10
2022-12-15T00:51:57.360Z,12.20
2022-12-15T00:52:29.807Z,11.60
2022-12-15T00:53:02.281Z,10.20
2022-12-15T00:53:34.771Z,10.60
2022-12-15T00:54:07.371Z,11.00
2022-12-15T00:54:39.927Z,11.10
2022-12-15T00:55:12.466Z,11.70
2022-12-15T00:55:44.931Z,12.20
2022-12-15T00:56:17.480Z,11.90
2022-12-15T00:56:50.075Z,12.60
2022-12-15T00:57:22.543Z,12.80
2022-12-15T00:57:55.052Z,11.00
2022-12-15T00:58:27.556Z,10.40
2022-12-15T00:59:00.070Z,11.10
2022-12-15T00:59:32.591Z,11.20
2022-12-15T01:00:05.136Z,10.80
2022-12-15T01:00:37.627Z,10.60
2022-12-15T01:01:10.102Z,11.50
2022-12-15T01:01:42.656Z,11.80
2022-12-15T01:02:15.195Z,11.40
2022-12-15T01:02:47.765Z,11.60
2022-12-15T01:03:20.230Z,11.70
2022-12-15T01:03:52.702Z,11.50
2022-12-15T01:04:25.082Z,10.80
2022-12-15T01:04:57.535Z,11.30
2022-12-15T01:05:29.976Z,11.40
2022-12-15T01:06:02.454Z,11.70
2022-12-15T01:06:34.980Z,12.00
2022-12-15T01:07:07.513Z,12.10
2022-12-15T01:07:40.036Z,10.50
2022-12-15T01:08:12.518Z,10.30
2022-12-15T01:08:44.999Z,12.00
2022-12-15T01:09:17.450Z,12.20
2022-12-15T01:09:49.898Z,13.00
2022-12-15T01:10:22.404Z,12.10
2022-12-15T01:10:54.918Z,11.40
2022-12-15T01:11:27.482Z,11.50
2022-12-15T01:11:59.954Z,12.90
2022-12-15T01:12:32.406Z,12.20
2022-12-15T01:13:04.997Z,10.50
2022-12-15T01:13:37.463Z,11.70
2022-12-15T01:14:10.014Z,12.00
2022-12-15T01:14:42.555Z,11.50
2022-12-15T01:15:15.067Z,11.10
2022-12-15T01:15:47.615Z,11.70
2022-12-15T01:16:20.203Z,11.80
2022-12-15T01:16:52.689Z,10.40
2022-12-15T01:17:25.214Z,10.20
2022-12-15T01:17:57.654Z,10.60
2022-12-15T01:18:30.102Z,11.10
2022-12-15T01:19:02.630Z,11.90
2022-12-15T01:19:35.150Z,11.20
2022-12-15T01:20:07.634Z,12.30
2022-12-15T01:20:40.119Z,10.90
2022-12-15T01:21:12.693Z,10.70
2022-12-15T01:21:45.199Z,11.50
2022-12-15T01:22:17.707Z,10.80
2022-12-15T01:22:50.224Z,11.60
2022-12-15T01:23:22.673Z,12.10
2022-12-15T01:23:55.143Z,11.50
2022-12-15T01:24:27.619Z,11.60
2022-12-15T01:25:00.150Z,12.40
2022-12-15T01:25:32.658Z,12.20
2022-12-15T01:26:05.182Z,12.20
2022-12-15T01:26:37.679Z,12.20
2022-12-15T01:27:10.178Z,11.60
2022-12-15T01:27:43.412Z,10.80
2022-12-15T01:28:15.929Z,11.60
2022-12-15T01:28:48.360Z,11.80
2022-12-15T01:29:20.789Z,11.50
2022-12-15T01:29:53.238Z,11.10
2022-12-15T01:30:25.710Z,10.60
2022-12-15T01:30:58.199Z,11.60
2022-12-15T01:31:30.692Z,11.40
2022-12-15T01:32:03.092Z,11.40
2022-12-15T01:32:35.615Z,12.20
2022-12-15T01:33:08.110Z,12.10
2022-12-15T01:33:40.580Z,12.20
2022-12-15T01:34:13.055Z,11.00
2022-12-15T01:34:45.526Z,11.00
2022-12-15T01:35:18.133Z,11.70
2022-12-15T01:35:50.621Z,11.40
2022-12-15T01:36:23.155Z,11.20
2022-12-15T01:36:55.653Z,11.80
2022-12-15T01:37:28.117Z,12.50
2022-12-15T01:38:00.561Z,11.20
2022-12-15T01:38:33.025Z,11.50
2022-12-15T01:39:05.562Z,10.70
2022-12-15T01:39:38.063Z,11.20
2022-12-15T01:40:10.517Z,11.50
2022-12-15T01:40:43.035Z,11.10
2022-12-15T01:41:15.523Z,11.10
2022-12-15T01:41:48.014Z,11.20
2022-12-15T01:42:20.563Z,11.30
2022-12-15T01:42:53.063Z,10.70
2022-12-15T01:43:25.527Z,10.40
2022-12-15T01:43:57.990Z,10.60
2022-12-15T01:44:30.484Z,11.10
2022-12-15T01:45:02.886Z,11.30
2022-12-15T01:45:35.383Z,11.00
2022-12-15T01:46:07.917Z,10.40
2022-12-15T01:46:40.478Z,9.50
2022-12-15T01:47:13.062Z,9.80
2022-12-15T01:47:45.493Z,10.90
2022-12-15T01:48:18.043Z,11.90
2022-12-15T01:48:50.595Z,11.10
2022-12-15T01:49:23.150Z,11.00
2022-12-15T01:49:55.698Z,10.40
2022-12-15T01:50:28.277Z,10.80
2022-12-15T01:51:00.813Z,11.40
2022-12-15T01:51:33.460Z,10.70
2022-12-15T01:52:05.961Z,10.90
2022-12-15T01:52:38.492Z,11.40
2022-12-15T01:53:11.004Z,11.00
2022-12-15T01:53:43.507Z,10.90
2022-12-15T01:54:16.027Z,11.90
2022-12-15T01:54:48.733Z,11.60
2022-12-15T01:55:21.144Z,11.30
2022-12-15T01:55:53.633Z,11.00
2022-12-15T01:56:26.123Z,11.30
2022-12-15T01:56:58.603Z,12.30
2022-12-15T01:57:31.125Z,11.80
2022-12-15T01:58:03.619Z,11.00
2022-12-15T01:58:36.087Z,11.00
2022-12-15T01:59:08.568Z,11.30
2022-12-15T01:59:41.138Z,10.70
2022-12-15T02:00:13.619Z,10.70
2022-12-15T02:00:46.211Z,10.20
2022-12-15T02:01:18.871Z,11.00
2022-12-15T02:01:51.351Z,11.60
2022-12-15T02:02:23.965Z,11.70
2022-12-15T02:02:56.452Z,11.60
2022-12-15T02:03:29.443Z,11.50
2022-12-15T02:04:01.361Z,10.50
2022-12-15T02:04:33.894Z,10.20
2022-12-15T02:05:06.394Z,10.60
2022-12-15T02:05:38.925Z,11.10
2022-12-15T02:06:11.439Z,10.60
2022-12-15T02:06:43.968Z,9.20
2022-12-15T02:07:16.462Z,9.20
2022-12-15T02:07:48.949Z,10.20
2022-12-15T02:08:21.401Z,11.20
2022-12-15T02:08:53.887Z,9.90
2022-12-15T02:09:26.385Z,10.00
2022-12-15T02:09:58.943Z,10.60
2022-12-15T02:10:31.468Z,11.20
2022-12-15T02:11:04.040Z,12.00
2022-12-15T02:11:36.590Z,11.40
2022-12-15T02:12:09.070Z,9.80
2022-12-15T02:12:41.505Z,10.20
2022-12-15T02:13:14.025Z,12.00
2022-12-15T02:13:46.546Z,12.80
2022-12-15T02:14:19.090Z,11.10
2022-12-15T02:14:51.732Z,10.70
2022-12-15T02:15:24.203Z,10.50
2022-12-15T02:15:56.801Z,11.00
2022-12-15T02:16:29.294Z,11.80
2022-12-15T02:17:01.740Z,11.40
2022-12-15T02:17:34.240Z,11.50
2022-12-15T02:18:06.775Z,11.40
2022-12-15T02:18:39.275Z,11.30
2022-12-15T02:19:11.799Z,12.30
2022-12-15T02:19:44.324Z,12.00
2022-12-15T02:20:16.881Z,10.90
2022-12-15T02:20:49.385Z,11.10
2022-12-15T02:21:21.885Z,10.60
2022-12-15T02:21:54.350Z,10.10
2022-12-15T02:22:26.869Z,10.60
2022-12-15T02:22:59.381Z,10.10
2022-12-15T02:23:32.236Z,10.60
2022-12-15T02:24:04.296Z,10.10
2022-12-15T02:24:36.758Z,10.70
2022-12-15T02:25:09.307Z,11.40
2022-12-15T02:25:41.805Z,11.10
2022-12-15T02:26:14.303Z,9.80
2022-12-15T02:26:46.907Z,10.60
2022-12-15T02:27:19.418Z,11.80
2022-12-15T02:27:51.926Z,12.00
2022-12-15T02:28:24.420Z,11.40
2022-12-15T02:28:56.852Z,10.50
2022-12-15T02:29:29.292Z,11.10
2022-12-15T02:30:01.789Z,11.90
2022-12-15T02:30:34.262Z,11.20
2022-12-15T02:31:06.831Z,10.30
2022-12-15T02:31:39.385Z,11.30
2022-12-15T02:32:11.774Z,10.00
2022-12-15T02:32:44.261Z,9.70
2022-12-15T02:33:16.768Z,11.40
2022-12-15T02:33:49.223Z,11.00
2022-12-15T02:34:21.773Z,9.80
2022-12-15T02:34:54.291Z,9.40
2022-12-15T02:35:26.749Z,10.30
2022-12-15T02:35:59.230Z,11.00
2022-12-15T02:36:31.709Z,10.50
2022-12-15T02:37:04.168Z,9.40
2022-12-15T02:37:36.641Z,10.40
2022-12-15T02:38:09.212Z,11.60
2022-12-15T02:38:41.698Z,10.30
2022-12-15T02:39:14.204Z,10.30
2022-12-15T02:39:46.687Z,11.40
2022-12-15T02:40:19.181Z,11.20
2022-12-15T02:40:51.670Z,10.70
2022-12-15T02:41:24.138Z,10.40
2022-12-15T02:41:56.608Z,10.50
2022-12-15T02:42:29.105Z,10.00
2022-12-15T02:43:01.673Z,10.50
2022-12-15T02:43:34.411Z,10.40
2022-12-15T02:44:06.639Z,10.50
2022-12-15T02:44:39.069Z,10.40
2022-12-15T02:45:11.565Z,9.90
2022-12-15T02:45:44.137Z,10.20
2022-12-15T02:46:16.718Z,10.30
2022-12-15T02:46:49.066Z,9.70
2022-12-15T02:47:21.610Z,9.90
2022-12-15T02:47:54.123Z,10.80
2022-12-15T02:48:26.606Z,12.00
2022-12-15T02:48:59.042Z,10.80
2022-12-15T02:49:31.548Z,10.80
2022-12-15T02:50:04.083Z,12.10
2022-12-15T02:50:36.540Z,12.30
2022-12-15T02:51:09.058Z,12.30
2022-12-15T02:51:41.631Z,11.70
2022-12-15T02:52:14.127Z,10.30
2022-12-15T02:52:46.755Z,10.60
2022-12-15T02:53:19.306Z,10.10
2022-12-15T02:53:51.865Z,11.10
2022-12-15T02:54:24.313Z,10.80
2022-12-15T02:54:56.764Z,9.90
2022-12-15T02:55:29.239Z,10.10
2022-12-15T02:56:01.841Z,10.90
2022-12-15T02:56:34.383Z,10.70
2022-12-15T02:57:06.842Z,11.20
2022-12-15T02:57:39.297Z,11.50
2022-12-15T02:58:11.757Z,11.20
2022-12-15T02:58:44.283Z,10.80
2022-12-15T02:59:16.782Z,10.40
2022-12-15T02:59:49.240Z,9.90
2022-12-15T03:00:21.705Z,10.50
2022-12-15T03:00:54.189Z,9.90
2022-12-15T03:01:26.838Z,10.70
2022-12-15T03:01:59.411Z,11.10
2022-12-15T03:02:31.802Z,9.70
2022-12-15T03:03:04.540Z,10.30
2022-12-15T03:03:36.997Z,10.20
2022-12-15T03:04:09.170Z,9.70
2022-12-15T03:04:41.648Z,10.40
2022-12-15T03:05:14.141Z,11.00
2022-12-15T03:05:46.623Z,11.30
2022-12-15T03:06:19.120Z,10.20
2022-12-15T03:06:54.734Z,10.00
2022-12-15T03:07:24.103Z,10.30
2022-12-15T03:07:56.632Z,11.20
2022-12-15T03:08:29.164Z,10.80
2022-12-15T03:09:01.762Z,10.50
2022-12-15T03:09:34.283Z,10.00
2022-12-15T03:10:06.810Z,10.60
2022-12-15T03:10:39.409Z,11.40
2022-12-15T03:11:11.878Z,10.80
2022-12-15T03:11:44.340Z,11.40
2022-12-15T03:12:16.836Z,11.80
2022-12-15T03:12:49.336Z,11.10
2022-12-15T03:13:21.855Z,11.10
2022-12-15T03:13:54.383Z,10.90
2022-12-15T03:14:26.837Z,10.50
2022-12-15T03:14:59.445Z,9.60
2022-12-15T03:15:35.347Z,10.50
2022-12-15T03:16:04.595Z,11.50
2022-12-15T03:16:37.098Z,11.30
2022-12-15T03:17:09.536Z,10.90
2022-12-15T03:17:42.056Z,10.90
2022-12-15T03:18:14.509Z,10.40
2022-12-15T03:18:46.976Z,10.40
2022-12-15T03:19:19.506Z,11.10
2022-12-15T03:19:51.999Z,11.70
2022-12-15T03:20:24.494Z,11.60
2022-12-15T03:20:56.990Z,9.90
2022-12-15T03:21:29.420Z,10.00
2022-12-15T03:22:01.846Z,10.30
2022-12-15T03:22:34.320Z,11.90
2022-12-15T03:23:06.785Z,12.70
2022-12-15T03:23:39.246Z,12.10
2022-12-15T03:24:11.836Z,10.70
2022-12-15T03:24:44.348Z,11.30
2022-12-15T03:25:16.820Z,11.20
2022-12-15T03:25:49.960Z,10.80
2022-12-15T03:26:21.752Z,10.70
2022-12-15T03:26:54.208Z,10.20
2022-12-15T03:27:26.769Z,9.70
2022-12-15T03:27:59.291Z,10.80
2022-12-15T03:28:31.833Z,11.10
2022-12-15T03:29:04.358Z,10.30
2022-12-15T03:29:36.892Z,11.80
2022-12-15T03:30:09.438Z,12.70
2022-12-15T03:30:41.960Z,10.60
2022-12-15T03:31:14.546Z,10.00
2022-12-15T03:31:49.603Z,11.40
2022-12-15T03:32:19.511Z,12.00
2022-12-15T03:32:52.018Z,11.50
2022-12-15T03:33:24.603Z,11.80
2022-12-15T03:33:57.086Z,11.40
2022-12-15T03:34:29.678Z,11.50
2022-12-15T03:35:02.282Z,11.60
2022-12-15T03:35:34.841Z,11.20
2022-12-15T03:36:07.344Z,10.60
2022-12-15T03:36:39.887Z,11.60
2022-12-15T03:37:12.368Z,10.40
2022-12-15T03:37:44.907Z,10.00
2022-12-15T03:38:17.438Z,11.00
2022-12-15T03:38:49.899Z,10.80
2022-12-15T03:39:22.364Z,12.10
2022-12-15T03:39:54.876Z,12.50
2022-12-15T03:40:27.413Z,12.00
2022-12-15T03:40:59.926Z,11.80
2022-12-15T03:41:32.487Z,10.30
2022-12-15T03:42:04.978Z,11.50
2022-12-15T03:42:37.447Z,12.90
2022-12-15T03:43:09.953Z,11.30
2022-12-15T03:43:42.512Z,11.00
2022-12-15T03:44:15.069Z,12.90
2022-12-15T03:44:47.539Z,12.40
2022-12-15T03:45:20.045Z,12.00
2022-12-15T03:45:52.538Z,11.10
2022-12-15T03:46:24.959Z,10.70
2022-12-15T03:47:02.711Z,11.30
2022-12-15T03:47:29.897Z,11.70
2022-12-15T03:48:02.449Z,11.20
2022-12-15T03:48:35.178Z,11.00
2022-12-15T03:49:07.663Z,11.10
2022-12-15T03:49:40.156Z,11.80
2022-12-15T03:50:12.645Z,11.90
2022-12-15T03:50:45.244Z,11.50
2022-12-15T03:51:17.693Z,11.60
2022-12-15T03:51:50.164Z,12.00
2022-12-15T03:52:22.609Z,10.80
2022-12-15T03:52:55.111Z,11.40
2022-12-15T03:53:27.794Z,12.20
2022-12-15T03:54:00.168Z,11.10
2022-12-15T03:54:32.680Z,10.60
2022-12-15T03:55:05.167Z,11.30
2022-12-15T03:55:37.610Z,11.80
2022-12-15T03:56:10.175Z,11.30
2022-12-15T03:56:42.714Z,11.50
2022-12-15T03:57:15.234Z,10.90
2022-12-15T03:57:47.749Z,10.70
2022-12-15T03:58:20.259Z,11.30
2022-12-15T03:58:52.749Z,11.00
2022-12-15T03:59:25.265Z,9.60
2022-12-15T03:59:57.792Z,10.70
2022-12-15T04:00:30.339Z,12.80
2022-12-15T04:01:02.881Z,12.20
2022-12-15T04:01:35.568Z,11.30
2022-12-15T04:02:08.089Z,10.50
2022-12-15T04:02:40.544Z,11.70
2022-12-15T04:03:13.084Z,11.90
2022-12-15T04:03:45.600Z,10.00
2022-12-15T04:04:17.975Z,11.20
2022-12-15T04:04:50.432Z,11.30
2022-12-15T04:05:22.955Z,10.70
2022-12-15T04:05:55.431Z,12.10
2022-12-15T04:06:27.918Z,12.40
2022-12-15T04:07:00.494Z,10.90
2022-12-15T04:07:33.039Z,10.80
2022-12-15T04:08:05.608Z,11.30
2022-12-15T04:08:38.139Z,11.00
2022-12-15T04:09:10.655Z,11.00
2022-12-15T04:09:43.290Z,11.50
2022-12-15T04:10:15.802Z,12.00
2022-12-15T04:10:48.322Z,12.00
2022-12-15T04:11:20.862Z,10.70
2022-12-15T04:11:53.371Z,11.40
2022-12-15T04:12:25.805Z,11.60
2022-12-15T04:12:58.265Z,10.60
2022-12-15T04:13:31.135Z,11.10
2022-12-15T04:14:03.288Z,11.80
2022-12-15T04:14:35.843Z,10.60
2022-12-15T04:15:08.483Z,11.20
2022-12-15T04:15:41.012Z,10.90
2022-12-15T04:16:19.358Z,10.60
2022-12-15T04:16:46.017Z,11.70
2022-12-15T04:17:18.461Z,11.40
2022-12-15T04:17:50.871Z,11.10
2022-12-15T04:18:23.371Z,10.90
2022-12-15T04:18:55.807Z,11.10
2022-12-15T04:19:28.357Z,11.90
2022-12-15T04:20:00.856Z,11.40
2022-12-15T04:20:33.332Z,11.40
2022-12-15T04:21:05.785Z,12.20
2022-12-15T04:21:38.343Z,11.80
2022-12-15T04:22:14.916Z,12.70
2022-12-15T04:22:43.365Z,12.40
2022-12-15T04:23:15.797Z,11.00
2022-12-15T04:23:48.403Z,11.00
2022-12-15T04:24:20.913Z,10.90
2022-12-15T04:24:53.353Z,11.50
2022-12-15T04:25:25.824Z,11.90
2022-12-15T04:25:58.265Z,13.20
2022-12-15T04:26:30.753Z,14.40
2022-12-15T04:27:03.199Z,12.90
2022-12-15T04:27:35.797Z,12.00
2022-12-15T04:28:08.300Z,12.10
2022-12-15T04:28:40.864Z,12.00
2022-12-15T04:29:13.374Z,12.70
2022-12-15T04:29:45.838Z,13.00
2022-12-15T04:30:18.307Z,13.30
2022-12-15T04:30:50.820Z,12.80
2022-12-15T04:31:23.308Z,12.20
2022-12-15T04:31:55.687Z,12.30
2022-12-15T04:32:28.177Z,12.50
2022-12-15T04:33:00.706Z,14.40
2022-12-15T04:33:33.562Z,13.30
2022-12-15T04:34:05.624Z,12.80
2022-12-15T04:34:38.090Z,13.50
2022-12-15T04:35:10.547Z,13.60
2022-12-15T04:35:42.987Z,13.70
2022-12-15T04:36:15.490Z,13.80
2022-12-15T04:36:48.042Z,13.50
2022-12-15T04:37:20.547Z,11.60
2022-12-15T04:37:53.183Z,12.50
2022-12-15T04:38:25.675Z,12.90
2022-12-15T04:38:58.205Z,12.70
2022-12-15T04:39:30.712Z,13.10
2022-12-15T04:40:03.245Z,13.00
2022-12-15T04:40:35.836Z,12.90
2022-12-15T04:41:08.339Z,14.30
2022-12-15T04:41:40.833Z,14.70
2022-12-15T04:42:13.368Z,12.80
2022-12-15T04:42:45.832Z,11.30
2022-12-15T04:43:18.274Z,12.50
2022-12-15T04:43:50.837Z,12.60
2022-12-15T04:44:23.402Z,14.30
2022-12-15T04:44:55.994Z,14.90
2022-12-15T04:45:28.515Z,13.90
2022-12-15T04:46:01.033Z,13.80
2022-12-15T04:46:33.739Z,13.20
2022-12-15T04:47:06.186Z,12.90
2022-12-15T04:47:38.707Z,13.40
2022-12-15T04:48:11.212Z,13.60
2022-12-15T04:48:43.689Z,13.20
2022-12-15T04:49:16.173Z,13.20
2022-12-15T04:49:48.637Z,13.80
2022-12-15T04:50:21.115Z,11.70
2022-12-15T04:50:53.734Z,12.50
2022-12-15T04:51:26.250Z,15.70
2022-12-15T04:51:58.720Z,14.90
2022-12-15T04:52:31.173Z,13.10
2022-12-15T04:53:03.671Z,12.50
2022-12-15T04:53:36.222Z,12.40
2022-12-15T04:54:08.810Z,13.00
2022-12-15T04:54:41.357Z,14.00
2022-12-15T04:55:13.839Z,13.60
2022-12-15T04:55:46.324Z,14.40
2022-12-15T04:56:19.017Z,15.40
2022-12-15T04:56:51.247Z,13.60
2022-12-15T04:57:23.701Z,12.70
2022-12-15T04:57:56.196Z,13.30
2022-12-15T04:58:28.720Z,14.30
2022-12-15T04:59:01.239Z,13.90
2022-12-15T04:59:33.799Z,14.20
2022-12-15T05:00:06.307Z,14.40
2022-12-15T05:00:38.840Z,13.40
2022-12-15T05:01:11.443Z,13.20
2022-12-15T05:01:44.105Z,13.80
2022-12-15T05:02:16.609Z,13.30
2022-12-15T05:02:49.790Z,12.80
2022-12-15T05:03:21.623Z,13.00
2022-12-15T05:03:54.184Z,13.30
2022-12-15T05:04:26.643Z,14.00
2022-12-15T05:04:59.039Z,14.70
2022-12-15T05:05:31.530Z,14.40
2022-12-15T05:06:03.980Z,13.50
2022-12-15T05:06:36.429Z,14.40
2022-12-15T05:07:08.891Z,13.80
2022-12-15T05:07:41.408Z,12.40
2022-12-15T05:08:14.036Z,13.00
2022-12-15T05:08:46.663Z,13.90
2022-12-15T05:09:19.176Z,14.60
2022-12-15T05:09:51.648Z,14.30
2022-12-15T05:10:24.112Z,13.10
2022-12-15T05:10:56.659Z,12.90
2022-12-15T05:11:29.177Z,13.90
2022-12-15T05:12:01.643Z,15.10
2022-12-15T05:12:34.106Z,14.30
2022-12-15T05:13:06.673Z,12.70
2022-12-15T05:13:39.301Z,12.50
2022-12-15T05:14:11.774Z,13.80
2022-12-15T05:14:46.632Z,13.50
2022-12-15T05:15:24.308Z,12.50
2022-12-15T05:15:56.726Z,13.10
2022-12-15T05:16:29.128Z,14.00
2022-12-15T05:17:01.661Z,13.30
2022-12-15T05:17:38.279Z,12.90
2022-12-15T05:18:06.703Z,13.50
2022-12-15T05:18:39.211Z,13.20
2022-12-15T05:19:11.713Z,13.50
2022-12-15T05:19:44.398Z,12.40
2022-12-15T05:20:16.904Z,12.60
2022-12-15T05:20:49.956Z,13.90
2022-12-15T05:21:21.943Z,14.10
2022-12-15T05:21:54.452Z,14.00
2022-12-15T05:22:26.957Z,12.90
2022-12-15T05:22:59.400Z,12.90
2022-12-15T05:23:32.177Z,12.90
2022-12-15T05:24:04.504Z,13.60
2022-12-15T05:24:36.998Z,13.80
2022-12-15T05:25:16.503Z,13.60
2022-12-15T05:25:49.007Z,14.10
2022-12-15T05:26:21.579Z,14.20
2022-12-15T05:26:54.107Z,13.40
2022-12-15T05:27:26.604Z,11.80
2022-12-15T05:27:59.147Z,12.30
2022-12-15T05:28:31.628Z,13.00
2022-12-15T05:29:04.115Z,13.90
2022-12-15T05:29:36.731Z,13.70
2022-12-15T05:30:09.215Z,13.80
2022-12-15T05:30:41.760Z,13.60
2022-12-15T05:31:14.305Z,13.60
2022-12-15T05:31:46.746Z,14.10
2022-12-15T05:32:19.280Z,14.40
2022-12-15T05:32:51.758Z,15.20
2022-12-15T05:33:24.219Z,14.20
2022-12-15T05:34:01.078Z,13.50
2022-12-15T05:34:29.134Z,13.70
2022-12-15T05:35:01.700Z,13.20
2022-12-15T05:35:34.186Z,12.80
2022-12-15T05:36:06.777Z,13.40
2022-12-15T05:36:39.373Z,13.60
2022-12-15T05:37:11.866Z,13.10
2022-12-15T05:37:44.328Z,13.70
2022-12-15T05:38:16.781Z,14.40
2022-12-15T05:38:50.413Z,14.00
2022-12-15T05:39:21.801Z,13.40
2022-12-15T05:39:54.307Z,13.40
2022-12-15T05:40:26.815Z,14.40
2022-12-15T05:40:59.257Z,14.00
2022-12-15T05:41:31.734Z,12.90
2022-12-15T05:42:04.237Z,14.10
2022-12-15T05:42:36.772Z,14.80
2022-12-15T05:43:09.299Z,13.00
2022-12-15T05:43:41.791Z,13.80
2022-12-15T05:44:14.251Z,14.50
2022-12-15T05:44:46.721Z,14.30
2022-12-15T05:45:19.164Z,15.30
2022-12-15T05:45:51.688Z,15.70
2022-12-15T05:46:24.191Z,14.80
2022-12-15T05:46:56.582Z,14.20
2022-12-15T05:47:29.083Z,14.70
2022-12-15T05:48:01.628Z,14.20
2022-12-15T05:48:34.139Z,13.10
2022-12-15T05:49:06.585Z,13.70
2022-12-15T05:49:39.045Z,13.90
2022-12-15T05:50:11.576Z,14.90
2022-12-15T05:50:44.063Z,14.00
2022-12-15T05:51:16.527Z,12.70
2022-12-15T05:51:49.016Z,13.30
2022-12-15T05:52:21.517Z,14.50
2022-12-15T05:52:54.037Z,14.30
2022-12-15T05:53:26.597Z,13.60
2022-12-15T05:53:59.120Z,14.30
2022-12-15T05:54:31.703Z,14.70
2022-12-15T05:55:04.157Z,14.70
2022-12-15T05:55:36.643Z,13.40
2022-12-15T05:56:09.183Z,13.10
2022-12-15T05:56:41.688Z,14.20
2022-12-15T05:57:14.131Z,14.40
2022-12-15T05:57:46.609Z,14.70
2022-12-15T05:58:19.073Z,13.30
2022-12-15T05:58:51.539Z,14.00
2022-12-15T05:59:24.014Z,14.70
2022-12-15T05:59:56.586Z,14.30
2022-12-15T06:00:29.103Z,14.60
2022-12-15T06:01:01.537Z,13.70
2022-12-15T06:01:33.998Z,13.20
2022-12-15T06:02:06.509Z,13.50
2022-12-15T06:02:38.918Z,15.60
2022-12-15T06:03:11.406Z,14.10
2022-12-15T06:03:43.870Z,13.70
2022-12-15T06:04:16.429Z,15.40
2022-12-15T06:04:48.835Z,15.20
2022-12-15T06:05:21.302Z,14.40
2022-12-15T06:05:56.645Z,13.30
2022-12-15T06:06:26.305Z,14.20
2022-12-15T06:06:58.859Z,15.30
2022-12-15T06:07:31.376Z,14.40
2022-12-15T06:08:03.922Z,14.00
2022-12-15T06:08:36.454Z,13.80
2022-12-15T06:09:08.961Z,13.50
2022-12-15T06:09:41.495Z,13.30
2022-12-15T06:10:13.996Z,13.90
2022-12-15T06:10:46.508Z,14.40
2022-12-15T06:11:18.936Z,14.40
2022-12-15T06:11:51.432Z,14.40
2022-12-15T06:12:23.898Z,14.80
2022-12-15T06:12:56.413Z,15.30
2022-12-15T06:13:29.139Z,15.00
2022-12-15T06:14:01.352Z,15.40
2022-12-15T06:14:33.913Z,14.30
2022-12-15T06:15:06.418Z,14.40
2022-12-15T06:15:38.922Z,15.30
2022-12-15T06:16:11.487Z,14.70
2022-12-15T06:16:51.135Z,14.00
2022-12-15T06:17:16.465Z,14.50
2022-12-15T06:17:49.735Z,15.20
2022-12-15T06:18:21.777Z,14.10
2022-12-15T06:18:54.248Z,12.10
2022-12-15T06:19:26.704Z,13.00
2022-12-15T06:19:59.232Z,14.60
2022-12-15T06:20:31.740Z,14.30
2022-12-15T06:21:04.218Z,14.60
2022-12-15T06:21:36.680Z,13.80
2022-12-15T06:22:09.173Z,14.80
2022-12-15T06:22:45.302Z,15.70
2022-12-15T06:23:14.102Z,14.80
2022-12-15T06:23:46.596Z,14.50
2022-12-15T06:24:19.252Z,14.40
2022-12-15T06:24:51.856Z,14.00
2022-12-15T06:25:24.304Z,15.10
2022-12-15T06:25:56.912Z,15.00
2022-12-15T06:26:29.428Z,15.30
2022-12-15T06:27:02.068Z,15.00
2022-12-15T06:27:34.581Z,14.70
2022-12-15T06:28:07.083Z,14.10
2022-12-15T06:28:39.608Z,15.20
2022-12-15T06:29:12.163Z,16.90
2022-12-15T06:29:44.670Z,16.30
2022-12-15T06:30:17.202Z,15.00
2022-12-15T06:30:49.714Z,14.50
2022-12-15T06:31:22.208Z,14.40
2022-12-15T06:31:54.768Z,14.50
2022-12-15T06:32:27.176Z,15.00
2022-12-15T06:32:59.694Z,15.40
2022-12-15T06:33:32.494Z,15.40
2022-12-15T06:34:04.712Z,15.10
2022-12-15T06:34:37.219Z,14.20
2022-12-15T06:35:09.760Z,13.80
2022-12-15T06:35:42.258Z,13.70
2022-12-15T06:36:14.808Z,14.70
2022-12-15T06:36:47.347Z,15.10
2022-12-15T06:37:19.851Z,14.50
2022-12-15T06:37:52.364Z,15.30
2022-12-15T06:38:24.842Z,15.40
2022-12-15T06:38:57.343Z,15.40
2022-12-15T06:39:29.859Z,15.10
2022-12-15T06:40:02.357Z,13.50
2022-12-15T06:40:38.028Z,14.30
2022-12-15T06:41:07.422Z,15.40
2022-12-15T06:41:39.950Z,15.80
2022-12-15T06:42:12.688Z,15.30
2022-12-15T06:42:44.963Z,15.40
2022-12-15T06:43:17.475Z,14.50
2022-12-15T06:43:50.014Z,15.30
2022-12-15T06:44:22.445Z,16.00
2022-12-15T06:44:54.896Z,15.40
2022-12-15T06:45:27.329Z,15.00
2022-12-15T06:45:59.829Z,15.50
2022-12-15T06:46:32.396Z,15.60
2022-12-15T06:47:04.990Z,15.60
2022-12-15T06:47:37.457Z,15.20
2022-12-15T06:48:10.390Z,16.00
2022-12-15T06:48:42.906Z,15.80
2022-12-15T06:49:15.451Z,16.20
2022-12-15T06:49:47.997Z,17.20
2022-12-15T06:50:20.510Z,16.90
2022-12-15T06:50:53.018Z,17.70
2022-12-15T06:51:25.542Z,15.60
2022-12-15T06:51:58.055Z,14.60
2022-12-15T06:52:30.579Z,14.60
2022-12-15T06:53:03.073Z,15.00
2022-12-15T06:53:35.548Z,15.60
2022-12-15T06:54:08.049Z,15.20
2022-12-15T06:54:40.535Z,15.20
2022-12-15T06:55:13.013Z,16.70
2022-12-15T06:55:45.491Z,17.90
2022-12-15T06:56:18.020Z,16.60
2022-12-15T06:56:50.533Z,14.70
2022-12-15T06:57:22.984Z,16.00
2022-12-15T06:57:55.479Z,18.20
2022-12-15T06:58:27.956Z,17.60
2022-12-15T06:59:00.511Z,16.10
2022-12-15T06:59:32.995Z,16.20